Time;durP1;ratioP1;P1;durP2;ratioP2;P2;SDS_P1;SDS_P2;PMS_P1;PMS_P2;Temp;Humidity;BMP_temperature;BMP_pressure;BME280_temperature;BME280_humidity;BME280_pressure;Samples;Min_cycle;Max_cycle;Signal;HPM_P1;HPM_P2
2021/09/10 00:01:20;;;;;;;0.00;0.00;;;17.30;64.00;;;;;;5035706;28;20477;-75
2021/09/10 00:03:45;;;;;;;0.00;0.00;;;17.30;64.10;;;;;;5035890;28;20028;-75
2021/09/10 00:06:11;;;;;;;0.00;0.00;;;17.20;64.70;;;;;;5036063;28;20025;-74
2021/09/10 00:08:37;;;;;;;0.00;0.00;;;17.20;64.20;;;;;;5034532;28;20029;-75
2021/09/10 00:11:02;;;;;;;0.00;0.00;;;17.20;64.10;;;;;;5036198;28;20029;-73
2021/09/10 00:13:28;;;;;;;0.00;0.00;;;17.10;64.00;;;;;;5035588;28;20374;-74
2021/09/10 00:15:54;;;;;;;0.00;0.00;;;17.20;64.00;;;;;;5034144;28;20033;-74
2021/09/10 00:18:19;;;;;;;0.03;0.00;;;17.20;64.00;;;;;;5035608;28;20032;-73
2021/09/10 00:20:45;;;;;;;0.00;0.00;;;17.20;63.90;;;;;;5035644;28;20039;-74
2021/09/10 00:23:12;;;;;;;0.00;0.00;;;17.20;63.90;;;;;;5035813;28;20026;-74
2021/09/10 00:25:37;;;;;;;0.00;0.00;;;17.10;63.80;;;;;;5035819;28;20025;-74
2021/09/10 00:28:03;;;;;;;0.00;0.00;;;17.10;63.80;;;;;;5035285;28;20496;-74
2021/09/10 00:30:29;;;;;;;0.00;0.00;;;17.20;63.80;;;;;;5035439;28;20033;-75
2021/09/10 00:32:55;;;;;;;0.00;0.00;;;17.10;63.80;;;;;;5035459;28;20446;-75
2021/09/10 00:35:20;;;;;;;0.00;0.00;;;17.10;63.80;;;;;;5035050;28;20030;-73
2021/09/10 00:37:46;;;;;;;0.00;0.00;;;17.10;63.70;;;;;;5035074;28;20022;-75
2021/09/10 00:40:12;;;;;;;0.00;0.00;;;17.10;63.80;;;;;;5034931;28;20033;-75
2021/09/10 00:42:38;;;;;;;0.00;0.00;;;17.10;63.80;;;;;;5035097;28;20032;-74
2021/09/10 00:45:04;;;;;;;0.00;0.00;;;17.10;63.80;;;;;;5034930;28;20030;-75
2021/09/10 00:47:30;;;;;;;0.00;0.00;;;17.00;63.70;;;;;;5035940;28;20040;-75
2021/09/10 00:49:55;;;;;;;0.00;0.00;;;17.00;63.80;;;;;;5035847;28;20033;-75
2021/09/10 00:52:21;;;;;;;0.00;0.00;;;17.00;63.80;;;;;;5035288;28;20091;-75
2021/09/10 00:54:47;;;;;;;0.00;0.00;;;17.00;63.90;;;;;;5035025;28;20072;-75
2021/09/10 00:57:14;;;;;;;0.00;0.00;;;16.90;64.00;;;;;;5033355;28;20402;-75
2021/09/10 00:59:40;;;;;;;0.00;0.00;;;16.90;64.10;;;;;;5034796;28;20037;-75
2021/09/10 01:02:06;;;;;;;0.00;0.00;;;16.90;64.20;;;;;;5035398;28;20108;-75
2021/09/10 01:04:32;;;;;;;0.00;0.00;;;16.90;64.20;;;;;;5050290;28;20116;-75
2021/09/10 01:06:59;;;;;;;0.00;0.00;;;16.80;64.20;;;;;;5034889;28;20021;-75
2021/09/10 01:09:26;;;;;;;0.00;0.00;;;16.80;64.20;;;;;;5035006;28;20040;-74
2021/09/10 01:11:53;;;;;;;0.00;0.00;;;16.80;64.10;;;;;;5034546;28;20033;-74
2021/09/10 01:14:20;;;;;;;0.00;0.00;;;16.80;64.00;;;;;;5034514;28;20415;-75
2021/09/10 01:16:47;;;;;;;0.00;0.00;;;16.80;63.80;;;;;;5034281;28;20140;-74
2021/09/10 01:19:24;;;;;;;0.00;0.00;;;16.80;63.80;;;;;;5033912;28;20111;-74
2021/09/10 01:21:52;;;;;;;0.00;0.00;;;16.80;63.80;;;;;;5034035;28;20030;-74
2021/09/10 01:24:25;;;;;;;0.00;0.00;;;16.80;63.80;;;;;;5034668;28;20110;-74
2021/09/10 01:26:50;;;;;;;0.00;0.00;;;16.80;64.00;;;;;;5034046;28;20033;-74
2021/09/10 01:29:17;;;;;;;0.00;0.00;;;16.70;64.00;;;;;;5034324;28;20029;-75
2021/09/10 01:31:43;;;;;;;0.00;0.00;;;16.70;64.20;;;;;;5034374;28;20029;-74
2021/09/10 01:34:09;;;;;;;0.00;0.00;;;16.60;64.20;;;;;;5034173;28;20040;-75
2021/09/10 01:36:34;;;;;;;0.00;0.00;;;16.60;65.00;;;;;;5033911;28;20462;-75
2021/09/10 01:39:00;;;;;;;0.00;0.00;;;16.50;64.50;;;;;;5033831;28;20033;-75
2021/09/10 01:41:26;;;;;;;0.00;0.00;;;16.50;64.60;;;;;;5049495;28;20112;-75
2021/09/10 01:43:51;;;;;;;0.00;0.00;;;16.40;64.70;;;;;;5032826;28;20079;-75
2021/09/10 01:46:17;;;;;;;0.00;0.00;;;16.40;64.90;;;;;;5034129;28;20032;-75
2021/09/10 01:48:43;;;;;;;0.00;0.00;;;16.40;65.00;;;;;;5033359;28;20033;-74
2021/09/10 01:51:08;;;;;;;0.00;0.00;;;16.30;64.80;;;;;;5033722;28;20083;-75
2021/09/10 01:53:34;;;;;;;0.00;0.00;;;16.30;64.70;;;;;;5033952;28;20052;-75
2021/09/10 01:56:00;;;;;;;0.00;0.00;;;16.30;64.70;;;;;;5034759;28;20132;-75
2021/09/10 01:58:26;;;;;;;0.15;0.00;;;16.30;64.50;;;;;;5033515;28;20021;-73
2021/09/10 02:00:52;;;;;;;0.10;0.00;;;16.40;64.40;;;;;;5034184;28;20083;-75
2021/09/10 02:03:18;;;;;;;0.00;0.00;;;16.40;64.30;;;;;;5033503;28;20026;-75
2021/09/10 02:05:44;;;;;;;0.00;0.00;;;16.40;64.40;;;;;;5034326;28;20469;-75
2021/09/10 02:08:09;;;;;;;0.00;0.00;;;16.30;64.30;;;;;;5033525;28;20044;-75
2021/09/10 02:10:35;;;;;;;0.00;0.00;;;16.30;64.40;;;;;;5034216;28;20037;-75
2021/09/10 02:13:01;;;;;;;0.00;0.00;;;16.30;64.50;;;;;;5033404;28;20018;-75
2021/09/10 02:15:27;;;;;;;0.10;0.00;;;16.30;64.60;;;;;;5033714;28;20088;-74
2021/09/10 02:17:52;;;;;;;0.00;0.00;;;16.30;64.70;;;;;;5033409;28;20030;-75
2021/09/10 02:20:18;;;;;;;0.00;0.00;;;16.30;64.80;;;;;;5033193;28;20048;-75
2021/09/10 02:22:44;;;;;;;0.00;0.00;;;16.30;64.80;;;;;;5033872;28;20076;-75
2021/09/10 02:25:10;;;;;;;0.00;0.00;;;16.30;64.90;;;;;;5033680;28;20052;-74
2021/09/10 02:27:36;;;;;;;0.00;0.00;;;16.20;64.80;;;;;;5033346;28;20112;-75
2021/09/10 02:30:03;;;;;;;0.00;0.00;;;16.20;64.90;;;;;;5033292;28;20037;-75
2021/09/10 02:32:29;;;;;;;0.00;0.00;;;16.20;65.00;;;;;;5033750;28;20057;-75
2021/09/10 02:34:55;;;;;;;0.00;0.00;;;16.20;65.00;;;;;;5032204;28;20465;-75
2021/09/10 02:37:21;;;;;;;0.00;0.00;;;16.20;64.80;;;;;;5033248;28;20029;-75
2021/09/10 02:39:47;;;;;;;0.00;0.00;;;16.20;64.80;;;;;;5033646;28;20484;-75
2021/09/10 02:42:13;;;;;;;0.00;0.00;;;16.20;64.80;;;;;;5033805;28;20541;-75
2021/09/10 02:44:39;;;;;;;0.00;0.00;;;16.20;64.80;;;;;;5033448;28;20104;-75
2021/09/10 02:47:04;;;;;;;0.00;0.00;;;16.20;65.30;;;;;;5033181;28;20096;-75
2021/09/10 02:49:30;;;;;;;0.00;0.00;;;16.20;64.70;;;;;;5033364;28;20034;-74
2021/09/10 02:51:56;;;;;;;0.00;0.00;;;16.20;64.60;;;;;;5033545;28;20533;-74
2021/09/10 02:54:22;;;;;;;0.00;0.00;;;16.20;64.50;;;;;;5033192;28;20076;-75
2021/09/10 02:56:48;;;;;;;0.00;0.00;;;16.20;64.50;;;;;;5033886;28;20029;-75
2021/09/10 02:59:13;;;;;;;0.00;0.00;;;16.20;64.50;;;;;;5035063;28;20048;-75
2021/09/10 03:01:43;;;;;;;0.00;0.00;;;16.20;64.50;;;;;;5037540;28;20029;-76
2021/09/10 03:04:09;;;;;;;0.00;0.00;;;16.20;64.40;;;;;;5051754;28;20028;-74
2021/09/10 03:06:35;;;;;;;0.00;0.00;;;16.20;64.40;;;;;;5037013;28;20156;-75
2021/09/10 03:09:01;;;;;;;0.00;0.00;;;16.20;64.40;;;;;;5037180;28;20437;-74
2021/09/10 03:11:28;;;;;;;0.00;0.00;;;16.20;64.40;;;;;;5035707;28;20477;-74
2021/09/10 03:13:54;;;;;;;0.00;0.00;;;16.20;64.50;;;;;;5036498;28;20033;-75
2021/09/10 03:16:20;;;;;;;0.00;0.00;;;16.20;64.50;;;;;;5036869;28;20029;-75
2021/09/10 03:18:45;;;;;;;0.00;0.00;;;16.20;64.60;;;;;;5035726;28;20033;-76
2021/09/10 03:21:11;;;;;;;0.00;0.00;;;16.20;64.60;;;;;;5052123;28;20025;-76
2021/09/10 03:23:37;;;;;;;0.00;0.00;;;16.20;64.70;;;;;;5036353;28;20359;-76
2021/09/10 03:26:03;;;;;;;0.00;0.00;;;16.20;64.70;;;;;;5036352;28;20525;-76
2021/09/10 03:28:28;;;;;;;0.00;0.00;;;16.20;64.70;;;;;;5036293;28;20029;-75
2021/09/10 03:30:54;;;;;;;0.00;0.00;;;16.20;64.60;;;;;;5037008;28;20030;-76
2021/09/10 03:33:20;;;;;;;0.00;0.00;;;16.20;64.60;;;;;;5036466;28;20021;-76
2021/09/10 03:35:45;;;;;;;0.00;0.00;;;16.20;64.50;;;;;;5036066;28;20037;-76
2021/09/10 03:38:11;;;;;;;0.00;0.00;;;16.20;64.50;;;;;;5035139;28;20025;-75
2021/09/10 03:40:37;;;;;;;0.00;0.00;;;16.20;64.40;;;;;;5036389;28;20037;-77
2021/09/10 03:43:05;;;;;;;0.00;0.00;;;16.30;64.40;;;;;;5035092;28;20036;-76
2021/09/10 03:45:31;;;;;;;0.00;0.00;;;16.30;65.10;;;;;;5036375;28;20108;-75
2021/09/10 03:47:57;;;;;;;0.00;0.00;;;16.30;64.60;;;;;;5035858;28;20025;-75
2021/09/10 03:50:23;;;;;;;0.00;0.00;;;16.30;64.70;;;;;;5036289;28;20378;-75
2021/09/10 03:52:48;;;;;;;0.00;0.00;;;16.30;64.60;;;;;;5036370;28;20032;-76
2021/09/10 03:55:15;;;;;;;0.00;0.00;;;16.30;64.40;;;;;;5035794;28;20116;-75
2021/09/10 03:57:41;;;;;;;0.00;0.00;;;16.40;64.50;;;;;;5034882;28;20029;-76
2021/09/10 04:00:08;;;;;;;0.00;0.00;;;16.40;64.50;;;;;;5035915;28;20029;-76
2021/09/10 04:02:34;;;;;;;0.00;0.00;;;16.40;65.10;;;;;;5036053;28;20060;-76
2021/09/10 04:05:00;;;;;;;0.00;0.00;;;16.40;64.70;;;;;;5035945;28;20049;-74
2021/09/10 04:07:26;;;;;;;0.00;0.00;;;16.50;64.90;;;;;;5034657;28;20469;-75
2021/09/10 04:09:51;;;;;;;0.00;0.00;;;16.50;65.00;;;;;;5035543;28;20036;-75
2021/09/10 04:12:17;;;;;;;0.00;0.00;;;16.50;65.00;;;;;;5036496;28;20365;-75
2021/09/10 04:14:43;;;;;;;0.00;0.00;;;16.50;65.00;;;;;;5034109;28;20492;-74
2021/09/10 04:17:09;;;;;;;0.00;0.00;;;16.50;65.00;;;;;;5034499;28;20064;-75
2021/09/10 04:19:34;;;;;;;0.00;0.00;;;16.60;64.80;;;;;;5035560;28;20063;-75
2021/09/10 04:22:00;;;;;;;0.00;0.00;;;16.60;64.70;;;;;;5035439;28;20068;-75
2021/09/10 04:24:26;;;;;;;0.00;0.00;;;16.70;64.70;;;;;;5035551;28;20021;-76
2021/09/10 04:26:52;;;;;;;0.00;0.00;;;16.70;64.80;;;;;;5035451;28;20029;-75
2021/09/10 04:29:18;;;;;;;0.00;0.00;;;16.70;65.10;;;;;;5035238;28;20469;-75
2021/09/10 04:31:44;;;;;;;0.00;0.00;;;16.70;65.30;;;;;;5034991;28;20025;-76
2021/09/10 04:34:10;;;;;;;0.00;0.00;;;16.70;65.50;;;;;;5035167;28;20021;-76
2021/09/10 04:36:36;;;;;;;0.00;0.00;;;16.80;65.50;;;;;;5035525;28;20031;-75
2021/09/10 04:39:02;;;;;;;0.00;0.00;;;16.80;65.50;;;;;;5033755;28;20057;-74
2021/09/10 04:41:27;;;;;;;0.00;0.00;;;16.90;65.60;;;;;;5034848;28;20030;-76
2021/09/10 04:43:53;;;;;;;0.00;0.00;;;16.90;65.60;;;;;;5035104;28;20075;-76
2021/09/10 04:46:19;;;;;;;0.00;0.00;;;16.90;65.60;;;;;;5034640;28;20025;-76
2021/09/10 04:48:45;;;;;;;0.00;0.00;;;17.00;65.60;;;;;;5034942;28;20034;-76
2021/09/10 04:51:10;;;;;;;0.00;0.00;;;17.10;65.70;;;;;;5034654;28;20460;-76
2021/09/10 04:53:39;;;;;;;0.00;0.00;;;17.10;65.60;;;;;;5035997;28;20136;-76
2021/09/10 04:56:05;;;;;;;0.00;0.00;;;17.20;65.70;;;;;;5035550;28;20431;-75
2021/09/10 04:58:31;;;;;;;0.00;0.00;;;17.20;65.70;;;;;;5033486;28;20148;-76
2021/09/10 05:00:56;;;;;;;0.00;0.00;;;17.30;65.60;;;;;;5034666;28;20074;-75
2021/09/10 05:03:22;;;;;;;0.00;0.00;;;17.40;65.70;;;;;;5035026;28;20135;-74
2021/09/10 05:06:00;;;;;;;0.00;0.00;;;17.40;65.40;;;;;;5034528;28;20034;-76
2021/09/10 05:08:27;;;;;;;0.00;0.00;;;17.50;65.20;;;;;;5034317;28;20030;-75
2021/09/10 05:10:53;;;;;;;0.00;0.00;;;17.60;65.00;;;;;;5034555;28;20379;-75
2021/09/10 05:13:18;;;;;;;0.00;0.00;;;17.70;64.90;;;;;;5034251;28;20029;-76
2021/09/10 05:15:44;;;;;;;0.00;0.00;;;17.70;64.90;;;;;;5034916;28;20021;-76
2021/09/10 05:18:10;;;;;;;0.08;0.08;;;17.80;64.70;;;;;;5034064;28;20110;-76
2021/09/10 05:20:35;;;;;;;0.10;0.00;;;17.90;64.30;;;;;;5034433;28;20040;-76
2021/09/10 05:23:01;;;;;;;0.00;0.00;;;17.90;64.00;;;;;;5031809;28;20441;-76
2021/09/10 05:25:27;;;;;;;0.00;0.00;;;18.10;64.00;;;;;;5033946;28;20029;-76
2021/09/10 05:27:52;;;;;;;0.05;0.00;;;18.20;63.90;;;;;;5034448;28;20049;-77
2021/09/10 05:30:18;;;;;;;0.10;0.00;;;18.20;63.60;;;;;;5034104;28;20064;-77
2021/09/10 05:32:44;;;;;;;0.00;0.00;;;18.40;63.40;;;;;;5034575;28;20029;-78
2021/09/10 05:35:10;;;;;;;0.00;0.00;;;18.40;63.00;;;;;;5049396;28;20109;-78
2021/09/10 05:37:36;;;;;;;0.00;0.00;;;18.50;62.80;;;;;;5034418;28;20119;-78
2021/09/10 05:40:03;;;;;;;0.00;0.00;;;18.60;62.60;;;;;;5034569;28;20120;-76
2021/09/10 05:42:29;;;;;;;0.00;0.00;;;18.70;62.40;;;;;;5033984;28;20034;-77
2021/09/10 05:44:55;;;;;;;0.00;0.00;;;18.80;62.10;;;;;;5033982;28;20097;-78
2021/09/10 05:47:21;;;;;;;0.00;0.00;;;19.00;61.70;;;;;;5035573;28;20026;-77
2021/09/10 05:49:48;;;;;;;0.00;0.00;;;19.10;61.40;;;;;;5035872;28;20029;-77
2021/09/10 05:52:18;;;;;;;0.00;0.00;;;19.20;61.10;;;;;;5033602;28;20029;-76
2021/09/10 05:54:44;;;;;;;0.00;0.00;;;19.30;60.80;;;;;;5034632;28;20060;-77
2021/09/10 05:57:10;;;;;;;0.00;0.00;;;19.50;60.60;;;;;;5033736;28;20458;-77
2021/09/10 05:59:35;;;;;;;0.00;0.00;;;19.60;60.10;;;;;;5032536;28;20034;-76
2021/09/10 06:02:01;;;;;;;0.00;0.00;;;19.70;59.70;;;;;;5034024;28;20033;-77
2021/09/10 06:04:27;;;;;;;0.00;0.00;;;19.80;59.20;;;;;;5034006;28;20026;-77
2021/09/10 06:06:52;;;;;;;0.00;0.00;;;19.90;58.70;;;;;;5034082;28;20026;-78
2021/09/10 06:09:18;;;;;;;0.00;0.00;;;20.10;58.20;;;;;;5033440;28;20485;-76
2021/09/10 06:11:44;;;;;;;0.00;0.00;;;20.20;57.70;;;;;;5032933;28;20033;-76
2021/09/10 06:14:09;;;;;;;0.00;0.00;;;20.30;57.20;;;;;;5033711;28;20101;-77
2021/09/10 06:16:35;;;;;;;0.00;0.00;;;20.40;56.80;;;;;;5033626;28;20025;-77
2021/09/10 06:19:01;;;;;;;0.00;0.00;;;20.50;56.40;;;;;;5033517;28;20029;-76
2021/09/10 06:21:27;;;;;;;0.00;0.00;;;20.60;55.90;;;;;;5033276;28;20022;-76
2021/09/10 06:23:54;;;;;;;0.00;0.00;;;20.70;55.60;;;;;;5033867;28;20064;-76
2021/09/10 06:26:22;;;;;;;0.00;0.00;;;20.80;55.50;;;;;;5033546;28;20032;-77
2021/09/10 06:28:48;;;;;;;0.00;0.00;;;20.90;55.30;;;;;;5033580;28;20025;-77
2021/09/10 06:31:14;;;;;;;0.00;0.00;;;21.00;55.00;;;;;;5033887;28;20098;-78
2021/09/10 06:33:45;;;;;;;0.00;0.00;;;21.10;54.80;;;;;;5034592;28;20021;-76
2021/09/10 06:36:11;;;;;;;0.00;0.00;;;21.20;54.60;;;;;;5037529;28;20026;-75
2021/09/10 06:38:37;;;;;;;0.00;0.00;;;21.30;54.50;;;;;;5037467;28;20025;-78
2021/09/10 06:41:11;;;;;;;0.00;0.00;;;21.40;54.30;;;;;;5037179;28;20033;-76
2021/09/10 06:43:37;;;;;;;0.00;0.00;;;21.40;54.00;;;;;;5052876;28;20111;-76
2021/09/10 06:46:03;;;;;;;0.00;0.00;;;21.50;53.90;;;;;;5037276;28;20064;-76
2021/09/10 06:48:29;;;;;;;0.00;0.00;;;21.60;53.80;;;;;;5037158;28;20369;-78
2021/09/10 06:50:55;;;;;;;0.00;0.00;;;21.70;53.70;;;;;;5037006;28;20037;-77
2021/09/10 06:53:25;;;;;;;0.00;0.00;;;21.80;53.70;;;;;;5037316;28;20030;-77
2021/09/10 06:55:51;;;;;;;0.00;0.00;;;21.90;53.50;;;;;;5036796;28;20132;-78
2021/09/10 06:58:17;;;;;;;0.00;0.00;;;22.00;53.40;;;;;;5037252;28;20502;-76
2021/09/10 07:00:42;;;;;;;0.00;0.00;;;22.10;53.20;;;;;;5036945;28;20037;-77
2021/09/10 07:03:08;;;;;;;0.00;0.00;;;22.20;53.20;;;;;;5037175;28;20027;-77
2021/09/10 07:05:34;;;;;;;0.00;0.00;;;22.30;53.10;;;;;;5036969;28;20378;-76
2021/09/10 07:08:00;;;;;;;0.00;0.00;;;22.40;52.70;;;;;;5036832;28;20529;-77
2021/09/10 07:10:25;;;;;;;0.00;0.00;;;22.50;52.10;;;;;;5036802;28;20084;-76
2021/09/10 07:12:51;;;;;;;0.00;0.00;;;22.60;52.00;;;;;;5036755;28;20451;-77
2021/09/10 07:15:17;;;;;;;0.00;0.00;;;22.80;52.10;;;;;;5036637;28;20109;-76
2021/09/10 07:17:42;;;;;;;0.00;0.00;;;22.90;52.00;;;;;;5035427;28;20057;-76
2021/09/10 07:20:09;;;;;;;0.00;0.00;;;23.00;51.80;;;;;;5036494;28;20429;-77
2021/09/10 07:22:34;;;;;;;0.00;0.00;;;23.10;51.60;;;;;;5037170;28;20182;-78
2021/09/10 07:25:00;;;;;;;0.00;0.00;;;23.30;51.30;;;;;;5036958;28;20025;-77
2021/09/10 07:27:26;;;;;;;0.00;0.00;;;23.50;50.80;;;;;;5037473;28;20036;-77
2021/09/10 07:29:51;;;;;;;0.20;0.00;;;23.60;50.40;;;;;;5052054;28;20052;-77
2021/09/10 07:32:17;;;;;;;0.00;0.00;;;23.80;50.60;;;;;;5036549;28;20041;-76
2021/09/10 07:34:43;;;;;;;0.00;0.00;;;24.00;50.60;;;;;;5036201;28;20412;-76
2021/09/10 07:37:09;;;;;;;0.00;0.00;;;24.20;50.60;;;;;;5036318;28;20025;-76
2021/09/10 07:39:35;;;;;;;0.00;0.00;;;24.30;50.50;;;;;;5036914;28;20112;-78
2021/09/10 07:42:01;;;;;;;0.00;0.00;;;24.50;50.20;;;;;;5036467;28;20044;-76
2021/09/10 07:44:26;;;;;;;0.00;0.00;;;24.70;50.20;;;;;;5036207;28;20107;-76
2021/09/10 07:47:07;;;;;;;0.00;0.00;;;24.90;50.30;;;;;;5035562;28;20030;-77
2021/09/10 07:49:41;;;;;;;0.00;0.00;;;25.00;50.10;;;;;;5036070;28;20032;-77
2021/09/10 07:52:07;;;;;;;0.00;0.00;;;25.20;49.80;;;;;;5035290;28;20323;-77
2021/09/10 07:54:33;;;;;;;0.00;0.00;;;25.40;49.50;;;;;;5035143;28;20052;-76
2021/09/10 07:56:58;;;;;;;0.00;0.00;;;25.60;49.30;;;;;;5036513;28;20028;-79
2021/09/10 07:59:24;;;;;;;0.00;0.00;;;25.90;49.10;;;;;;5036812;28;20033;-78
2021/09/10 08:01:51;;;;;;;0.00;0.00;;;26.10;48.70;;;;;;5035090;28;20028;-81
2021/09/10 08:04:18;;;;;;;0.00;0.00;;;26.40;48.40;;;;;;5037320;28;20082;-76
2021/09/10 08:06:47;;;;;;;0.00;0.00;;;26.70;48.00;;;;;;5036137;28;20470;-77
2021/09/10 08:09:15;;;;;;;0.00;0.00;;;27.00;47.60;;;;;;5037780;28;20545;-78
2021/09/10 08:11:43;;;;;;;0.00;0.00;;;27.20;47.20;;;;;;5036685;28;20029;-78
2021/09/10 08:14:10;;;;;;;0.00;0.00;;;27.60;46.80;;;;;;5036070;28;20030;-77
2021/09/10 08:16:37;;;;;;;0.00;0.00;;;27.90;46.40;;;;;;5035980;28;20389;-77
2021/09/10 08:19:04;;;;;;;0.08;0.00;;;28.20;46.00;;;;;;5035995;28;20037;-76
2021/09/10 08:21:30;;;;;;;0.00;0.00;;;28.50;45.80;;;;;;5051098;28;20101;-78
2021/09/10 08:23:56;;;;;;;0.00;0.00;;;29.00;45.50;;;;;;5034092;28;20106;-78
2021/09/10 08:26:26;;;;;;;0.00;0.00;;;29.40;45.20;;;;;;5035675;28;20032;-77
2021/09/10 08:28:53;;;;;;;0.00;0.00;;;30.00;44.70;;;;;;5037235;28;20386;-77
2021/09/10 08:31:19;;;;;;;0.00;0.00;;;30.70;44.10;;;;;;5037192;28;20032;-77
2021/09/10 08:33:46;;;;;;;0.00;0.00;;;31.50;43.50;;;;;;5037397;28;20025;-76
2021/09/10 08:36:12;;;;;;;0.00;0.00;;;32.40;42.50;;;;;;5036035;28;20378;-78
2021/09/10 08:38:50;;;;;;;0.00;0.00;;;33.30;42.10;;;;;;5035724;28;20044;-77
2021/09/10 08:41:27;;;;;;;0.00;0.00;;;34.20;41.00;;;;;;5036035;28;20104;-75
2021/09/10 08:44:05;;;;;;;0.00;0.00;;;35.00;39.90;;;;;;5036133;28;20112;-77
2021/09/10 08:46:40;;;;;;;0.00;0.00;;;35.70;39.50;;;;;;5050737;28;20543;-75
2021/09/10 08:49:27;;;;;;;0.00;0.00;;;36.40;38.20;;;;;;5034642;28;20120;-76
2021/09/10 08:51:58;;;;;;;0.00;0.00;;;37.10;37.10;;;;;;5049628;28;20025;-76
2021/09/10 08:54:24;;;;;;;0.00;0.00;;;37.70;36.80;;;;;;5036402;28;20061;-77
2021/09/10 08:57:14;;;;;;;0.00;0.00;;;38.20;36.10;;;;;;5036372;28;20025;-77
2021/09/10 08:59:40;;;;;;;0.08;0.08;;;38.70;35.40;;;;;;5035410;28;20449;-78
2021/09/10 09:02:07;;;;;;;0.00;0.00;;;39.20;34.90;;;;;;5034766;28;20021;-78
2021/09/10 09:04:47;;;;;;;0.00;0.00;;;39.60;33.90;;;;;;5034815;28;20056;-75
2021/09/10 09:07:22;;;;;;;0.00;0.00;;;40.00;33.90;;;;;;5035532;28;20431;-76
2021/09/10 09:09:49;;;;;;;0.00;0.00;;;40.50;33.50;;;;;;5035978;28;20437;-77
2021/09/10 09:12:31;;;;;;;0.00;0.00;;;41.00;33.00;;;;;;5036599;28;20026;-76
2021/09/10 09:15:04;;;;;;;0.00;0.00;;;41.30;32.60;;;;;;5035543;28;20031;-76
2021/09/10 09:17:41;;;;;;;0.00;0.00;;;41.70;33.00;;;;;;5035527;28;20021;-76
2021/09/10 09:20:19;;;;;;;0.00;0.00;;;42.10;31.80;;;;;;5035065;28;20029;-77
2021/09/10 09:23:01;;;;;;;0.00;0.00;;;42.50;31.70;;;;;;5034110;28;20021;-76
2021/09/10 09:26:03;;;;;;;0.00;0.00;;;42.70;31.10;;;;;;5034362;28;20036;-77
2021/09/10 09:28:31;;;;;;;0.00;0.00;;;43.00;31.10;;;;;;5032494;28;20207;-77
2021/09/10 09:31:00;;;;;;;0.00;0.00;;;43.30;31.00;;;;;;5033895;28;20477;-77
2021/09/10 09:33:31;;;;;;;0.00;0.00;;;43.60;30.90;;;;;;5034339;28;20504;-76
2021/09/10 09:36:00;;;;;;;0.10;0.10;;;43.80;30.50;;;;;;5049190;28;20355;-76
2021/09/10 09:38:31;;;;;;;0.00;0.00;;;43.90;30.30;;;;;;5032858;28;20393;-77
2021/09/10 09:41:02;;;;;;;;;;;44.10;30.00;;;;;;5034223;28;20469;-76
2021/09/10 09:43:30;;;;;;;0.00;0.00;;;44.30;30.80;;;;;;5034060;28;19963;-76
2021/09/10 09:45:57;;;;;;;0.00;0.00;;;44.50;30.00;;;;;;5033732;28;20033;-76
2021/09/10 09:48:25;;;;;;;0.00;0.00;;;44.60;29.70;;;;;;5049342;28;20032;-77
2021/09/10 09:50:53;;;;;;;0.00;0.00;;;44.60;29.40;;;;;;5034128;28;20056;-77
2021/09/10 09:53:20;;;;;;;0.10;0.10;;;44.70;29.50;;;;;;5033575;28;20029;-77
2021/09/10 09:55:47;;;;;;;0.10;0.10;;;44.90;29.50;;;;;;5034011;28;20059;-76
2021/09/10 09:58:14;;;;;;;0.10;0.10;;;45.00;29.40;;;;;;5033900;28;20034;-77
2021/09/10 10:00:40;;;;;;;0.10;0.10;;;45.20;29.20;;;;;;5033649;28;20365;-77
2021/09/10 10:03:07;;;;;;;0.05;0.05;;;45.40;29.10;;;;;;5033509;28;20465;-77
2021/09/10 10:06:03;;;;;;;0.10;0.10;;;45.70;28.90;;;;;;5033942;28;20029;-77
2021/09/10 10:08:37;;;;;;;0.10;0.10;;;45.90;28.70;;;;;;5033398;28;20030;-77
2021/09/10 10:11:17;;;;;;;0.10;0.10;;;46.20;28.50;;;;;;5033351;28;20025;-76
2021/09/10 10:13:44;;;;;;;0.10;0.10;;;46.40;28.30;;;;;;5033309;28;20034;-76
2021/09/10 10:16:52;;;;;;;0.10;0.10;;;46.60;28.50;;;;;;5034142;28;20056;-77
2021/09/10 10:19:20;;;;;;;0.10;0.10;;;46.70;28.40;;;;;;5031606;28;20099;-77
2021/09/10 10:21:58;;;;;;;0.20;0.20;;;46.80;28.30;;;;;;5031294;28;20039;-77
2021/09/10 10:24:50;;;;;;;0.10;0.10;;;46.90;28.20;;;;;;5032334;28;20052;-77
2021/09/10 10:27:30;;;;;;;0.10;0.10;;;47.10;28.80;;;;;;5033161;28;20026;-77
2021/09/10 10:29:56;;;;;;;0.10;0.10;;;47.10;28.10;;;;;;5033364;28;20034;-78
2021/09/10 10:32:32;;;;;;;0.17;0.17;;;47.30;28.00;;;;;;5033546;28;20072;-76
2021/09/10 10:35:16;;;;;;;0.17;0.17;;;47.40;27.90;;;;;;5033342;28;20057;-76
2021/09/10 10:37:43;;;;;;;0.20;0.20;;;47.50;27.80;;;;;;5033722;28;20029;-77
2021/09/10 10:40:48;;;;;;;0.20;0.20;;;47.70;27.70;;;;;;5033349;28;20068;-76
2021/09/10 10:43:22;;;;;;;0.20;0.20;;;47.80;27.60;;;;;;5036986;28;20474;-77
2021/09/10 10:45:47;;;;;;;0.20;0.20;;;48.00;27.50;;;;;;5033314;28;20021;-76
2021/09/10 10:48:34;;;;;;;0.10;0.10;;;48.10;27.50;;;;;;5033196;28;20029;-77
2021/09/10 10:51:13;;;;;;;0.20;0.20;;;48.10;27.30;;;;;;5033558;28;20116;-76
2021/09/10 10:53:47;;;;;;;0.10;0.10;;;48.10;27.10;;;;;;5033841;28;20434;-77
2021/09/10 10:56:25;;;;;;;0.20;0.20;;;48.10;27.10;;;;;;5033096;28;20045;-78
2021/09/10 10:59:15;;;;;;;0.20;0.20;;;48.10;27.00;;;;;;5032178;28;20089;-77
2021/09/10 11:02:22;;;;;;;0.10;0.10;;;48.00;27.10;;;;;;5032898;28;20029;-76
2021/09/10 11:04:52;;;;;;;0.17;0.17;;;48.10;27.00;;;;;;5032877;28;20528;-77
2021/09/10 11:07:22;;;;;;;0.20;0.20;;;48.40;27.00;;;;;;5033103;28;20026;-77
2021/09/10 11:10:02;;;;;;;0.20;0.20;;;48.60;26.90;;;;;;5032825;28;20022;-77
2021/09/10 11:12:28;;;;;;;0.20;0.20;;;48.70;27.00;;;;;;5032784;28;20028;-77
2021/09/10 11:14:54;;;;;;;0.17;0.17;;;48.90;26.90;;;;;;5032031;28;20116;-78
2021/09/10 11:17:26;;;;;;;0.20;0.20;;;49.00;26.70;;;;;;5031788;28;20456;-77
2021/09/10 11:19:54;;;;;;;0.20;0.20;;;49.10;26.70;;;;;;5033198;28;20117;-77
2021/09/10 11:22:21;;;;;;;0.20;0.20;;;49.30;26.70;;;;;;5036968;28;20029;-77
2021/09/10 11:24:48;;;;;;;0.20;0.20;;;49.30;26.60;;;;;;5036929;28;20025;-76
2021/09/10 11:27:30;;;;;;;0.20;0.20;;;49.40;26.50;;;;;;5036282;28;20033;-77
2021/09/10 11:30:05;;;;;;;0.13;0.13;;;49.40;26.30;;;;;;5036495;28;20053;-76
2021/09/10 11:32:31;;;;;;;0.20;0.20;;;49.50;26.30;;;;;;5037037;28;20112;-78
2021/09/10 11:34:57;;;;;;;0.30;0.30;;;49.50;26.40;;;;;;5036280;28;20025;-78
2021/09/10 11:37:27;;;;;;;0.30;0.30;;;49.60;26.40;;;;;;5036166;28;20112;-77
2021/09/10 11:39:53;;;;;;;0.20;0.20;;;49.60;26.40;;;;;;5036897;28;20103;-76
2021/09/10 11:42:35;;;;;;;0.10;0.10;;;49.80;26.50;;;;;;5035995;28;20064;-77
2021/09/10 11:45:13;;;;;;;0.20;0.20;;;49.80;26.30;;;;;;5036375;28;20083;-77
2021/09/10 11:47:40;;;;;;;0.20;0.20;;;49.90;26.50;;;;;;5036206;28;20033;-76
2021/09/10 11:50:09;;;;;;;0.20;0.20;;;49.90;26.60;;;;;;5035833;28;20096;-78
2021/09/10 11:52:38;;;;;;;0.15;0.15;;;50.00;26.80;;;;;;5036200;28;20033;-77
2021/09/10 11:55:15;;;;;;;0.10;0.10;;;50.00;26.60;;;;;;5036692;28;20077;-77
2021/09/10 11:57:42;;;;;;;0.20;0.20;;;50.00;26.60;;;;;;5034953;28;20485;-76
2021/09/10 12:00:21;;;;;;;0.30;0.30;;;50.00;26.60;;;;;;5035545;28;20033;-78
2021/09/10 12:02:54;;;;;;;0.13;0.13;;;49.90;26.60;;;;;;5035856;28;20025;-77
2021/09/10 12:05:20;;;;;;;0.30;0.30;;;49.90;26.40;;;;;;5035896;28;20029;-77
2021/09/10 12:07:49;;;;;;;0.20;0.20;;;49.90;26.40;;;;;;5035502;28;20021;-77
2021/09/10 12:10:28;;;;;;;0.10;0.10;;;49.70;26.40;;;;;;5050913;28;20096;-78
2021/09/10 12:13:08;;;;;;;0.20;0.20;;;49.70;26.40;;;;;;5034334;28;20038;-77
2021/09/10 12:15:34;;;;;;;0.20;0.20;;;49.60;26.10;;;;;;5036311;28;20036;-77
2021/09/10 12:18:16;;;;;;;0.30;0.30;;;49.60;26.10;;;;;;5035404;28;20112;-76
2021/09/10 12:20:43;;;;;;;0.10;0.10;;;49.30;26.00;;;;;;5035569;28;20462;-78
2021/09/10 12:23:20;;;;;;;0.20;0.20;;;49.30;26.20;;;;;;5035620;28;20489;-77
2021/09/10 12:26:02;;;;;;;0.20;0.20;;;49.30;26.20;;;;;;5035795;28;20021;-78
2021/09/10 12:28:33;;;;;;;0.10;0.10;;;49.30;26.20;;;;;;5035032;28;20029;-76
2021/09/10 12:31:03;;;;;;;0.30;0.30;;;49.20;26.20;;;;;;5035092;28;20036;-76
2021/09/10 12:33:30;;;;;;;0.20;0.20;;;49.10;26.20;;;;;;5035108;28;20435;-77
2021/09/10 12:36:00;;;;;;;0.20;0.20;;;49.10;26.20;;;;;;5035635;28;20033;-79
2021/09/10 12:38:36;;;;;;;0.20;0.20;;;49.10;26.10;;;;;;5035641;28;20060;-78
2021/09/10 12:41:01;;;;;;;0.20;0.20;;;49.20;26.20;;;;;;5034929;28;20033;-77
2021/09/10 12:43:28;;;;;;;0.10;0.10;;;49.30;26.20;;;;;;5033728;28;20025;-78
2021/09/10 12:45:55;;;;;;;0.13;0.13;;;49.30;26.20;;;;;;5035074;28;20025;-77
2021/09/10 12:48:21;;;;;;;0.20;0.20;;;49.20;26.20;;;;;;5050426;28;20060;-78
2021/09/10 12:50:47;;;;;;;0.00;0.00;;;49.20;26.20;;;;;;5034635;28;20568;-77
2021/09/10 12:53:13;;;;;;;0.10;0.10;;;49.20;26.20;;;;;;5035526;28;20376;-76
2021/09/10 12:55:40;;;;;;;0.17;0.17;;;49.20;26.20;;;;;;5050074;28;20076;-77